createdAt,value
2022-12-04T00:02:23.393Z,81.73
2022-12-04T00:04:49.972Z,81.90
2022-12-04T00:07:16.571Z,81.88
2022-12-04T00:09:42.945Z,82.07
2022-12-04T00:12:09.378Z,82.08
2022-12-04T00:14:49.050Z,81.95
2022-12-04T00:17:22.026Z,81.71
2022-12-04T00:19:48.382Z,81.90
2022-12-04T00:22:14.858Z,82.06
2022-12-04T00:24:41.229Z,81.89
2022-12-04T00:27:07.540Z,81.94
2022-12-04T00:29:34.041Z,81.87
2022-12-04T00:32:00.515Z,81.84
2022-12-04T00:34:28.197Z,81.69
2022-12-04T00:36:54.512Z,81.67
2022-12-04T00:39:20.948Z,81.83
2022-12-04T00:41:48.355Z,82.00
2022-12-04T00:44:14.726Z,81.86
2022-12-04T00:46:41.099Z,81.76
2022-12-04T00:49:07.442Z,82.15
2022-12-04T00:51:33.761Z,82.25
2022-12-04T00:54:00.351Z,82.22
2022-12-04T00:56:29.126Z,82.39
2022-12-04T00:58:57.788Z,82.19
2022-12-04T01:01:25.364Z,82.18
2022-12-04T01:03:52.334Z,82.25
2022-12-04T01:06:23.563Z,82.47
2022-12-04T01:08:51.801Z,82.33
2022-12-04T01:11:19.410Z,82.11
2022-12-04T01:13:46.064Z,82.22
2022-12-04T01:16:20.371Z,82.39
2022-12-04T01:18:47.956Z,82.34
2022-12-04T01:21:14.467Z,82.27
2022-12-04T01:23:40.813Z,82.26
2022-12-04T01:26:07.607Z,82.06
2022-12-04T01:28:34.383Z,82.50
2022-12-04T01:31:01.890Z,82.63
2022-12-04T01:33:29.696Z,82.59
2022-12-04T01:35:58.764Z,82.60
2022-12-04T01:38:25.919Z,82.60
2022-12-04T01:40:52.759Z,82.50
2022-12-04T01:43:19.794Z,82.81
2022-12-04T01:45:50.515Z,82.71
2022-12-04T01:48:29.766Z,82.58
2022-12-04T01:51:06.893Z,82.40
2022-12-04T01:53:37.875Z,82.59
2022-12-04T01:56:04.790Z,82.22
2022-12-04T01:58:35.054Z,82.29
2022-12-04T02:01:08.437Z,82.54
2022-12-04T02:03:36.694Z,82.65
2022-12-04T02:06:03.394Z,82.44
2022-12-04T02:08:30.461Z,82.12
2022-12-04T02:11:08.454Z,82.37
2022-12-04T02:14:09.368Z,82.56
2022-12-04T02:17:14.004Z,82.64
2022-12-04T02:20:04.206Z,82.55
2022-12-04T02:22:59.996Z,82.57
2022-12-04T02:25:40.360Z,82.59
2022-12-04T02:28:28.594Z,82.64
2022-12-04T02:30:58.558Z,82.56
2022-12-04T02:33:31.811Z,82.52
2022-12-04T02:36:04.661Z,82.74
2022-12-04T02:38:40.519Z,82.80
2022-12-04T02:41:13.653Z,82.55
2022-12-04T02:43:49.708Z,82.66
2022-12-04T02:46:28.494Z,82.63
2022-12-04T02:49:00.090Z,82.48
2022-12-04T02:51:30.479Z,82.76
2022-12-04T02:54:09.218Z,82.97
2022-12-04T02:56:40.671Z,82.84
2022-12-04T02:59:12.685Z,82.82
2022-12-04T03:01:43.467Z,83.05
2022-12-04T03:04:25.590Z,82.87
2022-12-04T03:07:00.462Z,82.73
2022-12-04T03:09:35.125Z,82.76
2022-12-04T03:12:12.657Z,82.81
2022-12-04T03:14:47.973Z,82.71
2022-12-04T03:17:31.353Z,82.91
2022-12-04T03:20:03.205Z,82.82
2022-12-04T03:22:34.346Z,82.80
2022-12-04T03:25:03.447Z,82.91
2022-12-04T03:27:53.095Z,82.97
2022-12-04T03:30:22.110Z,82.88
2022-12-04T03:32:57.687Z,83.24
2022-12-04T03:35:29.389Z,82.82
2022-12-04T03:38:15.140Z,83.21
2022-12-04T03:40:48.793Z,83.24
2022-12-04T03:43:26.691Z,83.15
2022-12-04T03:46:04.214Z,83.00
2022-12-04T03:48:48.893Z,83.08
2022-12-04T03:51:18.068Z,83.08
2022-12-04T03:53:51.335Z,83.17
2022-12-04T03:56:25.084Z,83.30
2022-12-04T03:58:57.608Z,83.12
2022-12-04T04:01:30.238Z,83.17
2022-12-04T04:04:00.750Z,83.17
2022-12-04T04:06:44.021Z,83.32
2022-12-04T04:09:16.402Z,83.26
2022-12-04T04:11:48.713Z,83.44
2022-12-04T04:14:41.116Z,83.46
2022-12-04T04:17:34.915Z,83.17
2022-12-04T04:20:31.805Z,83.59
2022-12-04T04:23:20.198Z,83.68
2022-12-04T04:25:47.118Z,83.71
2022-12-04T04:28:30.103Z,83.63
2022-12-04T04:31:13.115Z,83.34
2022-12-04T04:33:47.752Z,83.87
2022-12-04T04:36:38.757Z,83.84
2022-12-04T04:39:15.226Z,83.69
2022-12-04T04:41:53.582Z,83.86
2022-12-04T04:44:29.324Z,83.88
2022-12-04T04:47:01.719Z,83.95
2022-12-04T04:49:32.289Z,84.00
2022-12-04T04:51:59.521Z,83.97
2022-12-04T04:54:28.128Z,84.01
2022-12-04T04:56:54.466Z,83.87
2022-12-04T04:59:20.801Z,84.07
2022-12-04T05:01:47.844Z,84.02
2022-12-04T05:04:14.440Z,84.41
2022-12-04T05:06:40.889Z,84.23
2022-12-04T05:09:07.181Z,84.09
2022-12-04T05:11:33.665Z,84.02
2022-12-04T05:14:00.008Z,84.25
2022-12-04T05:16:26.442Z,84.35
2022-12-04T05:19:11.619Z,84.08
2022-12-04T05:21:38.207Z,84.09
2022-12-04T05:24:04.606Z,84.34
2022-12-04T05:26:31.016Z,84.32
2022-12-04T05:28:57.317Z,84.34
2022-12-04T05:31:23.858Z,84.48
2022-12-04T05:33:50.474Z,84.29
2022-12-04T05:36:16.856Z,84.40
2022-12-04T05:38:43.267Z,84.26
2022-12-04T05:41:09.775Z,84.44
2022-12-04T05:43:37.616Z,84.36
2022-12-04T05:46:08.673Z,84.35
2022-12-04T05:48:35.549Z,84.38
2022-12-04T05:51:06.673Z,84.35
2022-12-04T05:53:33.227Z,84.51
2022-12-04T05:56:03.025Z,84.43
2022-12-04T05:58:31.595Z,84.28
2022-12-04T06:00:58.184Z,84.29
2022-12-04T06:03:24.614Z,84.43
2022-12-04T06:05:51.261Z,84.31
2022-12-04T06:08:17.644Z,84.10
2022-12-04T06:10:44.014Z,84.33
2022-12-04T06:13:10.383Z,84.34
2022-12-04T06:15:39.042Z,84.29
2022-12-04T06:18:05.740Z,84.15
2022-12-04T06:20:33.066Z,84.42
2022-12-04T06:22:59.546Z,84.27
2022-12-04T06:25:25.907Z,84.33
2022-12-04T06:27:52.222Z,84.37
2022-12-04T06:30:18.559Z,84.49
2022-12-04T06:32:47.252Z,84.31
2022-12-04T06:35:13.765Z,84.29
2022-12-04T06:37:40.102Z,84.18
2022-12-04T06:40:07.365Z,84.31
2022-12-04T06:42:33.672Z,84.25
2022-12-04T06:44:59.976Z,84.21
2022-12-04T06:47:26.314Z,84.31
2022-12-04T06:49:52.835Z,84.15
2022-12-04T06:52:19.428Z,84.28
2022-12-04T06:54:45.758Z,84.33
2022-12-04T06:57:12.063Z,84.39
2022-12-04T06:59:38.654Z,84.53
2022-12-04T07:02:05.034Z,84.27
2022-12-04T07:04:31.399Z,84.13
2022-12-04T07:06:57.715Z,84.46
2022-12-04T07:09:24.049Z,84.31
2022-12-04T07:11:50.356Z,84.29
2022-12-04T07:14:16.911Z,84.23
2022-12-04T07:16:43.389Z,84.52
2022-12-04T07:19:10.799Z,84.72
2022-12-04T07:21:37.117Z,84.33
2022-12-04T07:24:04.083Z,84.79
2022-12-04T07:26:31.274Z,84.44
2022-12-04T07:28:58.760Z,84.27
2022-12-04T07:31:26.730Z,84.61
2022-12-04T07:33:54.319Z,84.57
2022-12-04T07:36:22.279Z,84.68
2022-12-04T07:38:49.236Z,84.75
2022-12-04T07:41:16.025Z,84.73
2022-12-04T07:43:42.892Z,84.40
2022-12-04T07:46:15.712Z,84.51
2022-12-04T07:48:42.860Z,84.79
2022-12-04T07:51:12.450Z,84.84
2022-12-04T07:53:39.164Z,84.64
2022-12-04T07:56:06.569Z,85.00
2022-12-04T07:58:33.645Z,84.42
2022-12-04T08:01:12.196Z,84.51
2022-12-04T08:03:46.770Z,84.87
2022-12-04T08:06:14.199Z,84.73
2022-12-04T08:08:41.552Z,84.71
2022-12-04T08:11:10.794Z,84.99
2022-12-04T08:13:37.502Z,84.76
2022-12-04T08:16:05.407Z,84.84
2022-12-04T08:18:33.614Z,84.71
2022-12-04T08:21:14.077Z,84.50
2022-12-04T08:23:41.934Z,84.48
2022-12-04T08:26:09.965Z,84.55
2022-12-04T08:28:36.770Z,84.47
2022-12-04T08:31:04.799Z,84.61
2022-12-04T08:33:31.521Z,84.72
2022-12-04T08:35:58.319Z,84.89
2022-12-04T08:38:24.630Z,84.66
2022-12-04T08:40:50.958Z,84.50
2022-12-04T08:43:17.308Z,84.43
2022-12-04T08:45:43.663Z,84.68
2022-12-04T08:48:10.057Z,84.53
2022-12-04T08:50:36.536Z,84.67
2022-12-04T08:53:02.830Z,84.56
2022-12-04T08:55:29.323Z,84.46
2022-12-04T08:57:55.825Z,84.69
2022-12-04T09:00:22.258Z,84.75
2022-12-04T09:02:49.802Z,84.56
2022-12-04T09:05:16.919Z,84.69
2022-12-04T09:07:43.283Z,84.92
2022-12-04T09:10:10.422Z,84.89
2022-12-04T09:12:36.979Z,84.98
2022-12-04T09:15:03.612Z,84.96
2022-12-04T09:17:29.946Z,85.31
2022-12-04T09:20:00.751Z,85.26
2022-12-04T09:22:40.507Z,85.29
2022-12-04T09:25:13.987Z,85.40
2022-12-04T09:27:43.571Z,85.50
2022-12-04T09:30:11.554Z,85.59
2022-12-04T09:32:38.542Z,85.88
2022-12-04T09:35:06.504Z,85.88
2022-12-04T09:37:33.895Z,86.11
2022-12-04T09:40:00.333Z,86.19
2022-12-04T09:42:57.054Z,85.57
2022-12-04T09:45:26.106Z,85.75
2022-12-04T09:47:56.511Z,86.00
2022-12-04T09:50:24.498Z,86.07
2022-12-04T09:52:57.547Z,86.01
2022-12-04T09:55:29.635Z,85.92
2022-12-04T09:58:02.125Z,85.86
2022-12-04T10:00:30.752Z,85.98
2022-12-04T10:03:03.982Z,85.97
2022-12-04T10:05:52.933Z,85.71
2022-12-04T10:08:29.062Z,85.94
2022-12-04T10:11:04.373Z,85.82
2022-12-04T10:13:41.948Z,85.78
2022-12-04T10:16:19.485Z,85.75
2022-12-04T10:18:57.601Z,85.76
2022-12-04T10:21:35.086Z,85.57
2022-12-04T10:24:13.942Z,85.60
2022-12-04T10:26:47.041Z,85.01
2022-12-04T10:29:26.564Z,85.23
2022-12-04T10:31:56.725Z,84.78
2022-12-04T10:34:26.582Z,84.72
2022-12-04T10:36:55.633Z,84.83
2022-12-04T10:39:34.907Z,84.41
2022-12-04T10:42:11.482Z,84.80
2022-12-04T10:44:38.877Z,84.53
2022-12-04T10:47:06.653Z,84.39
2022-12-04T10:49:35.507Z,84.45
2022-12-04T10:52:02.222Z,84.40
2022-12-04T10:54:33.586Z,84.22
2022-12-04T10:57:05.857Z,84.32
2022-12-04T10:59:32.753Z,84.29
2022-12-04T11:02:19.248Z,84.02
2022-12-04T11:05:01.939Z,83.98
2022-12-04T11:07:32.339Z,84.11
2022-12-04T11:10:24.390Z,83.96
2022-12-04T11:13:01.315Z,83.95
2022-12-04T11:15:28.290Z,84.00
2022-12-04T11:17:56.803Z,84.01
2022-12-04T11:20:26.476Z,83.54
2022-12-04T11:22:58.969Z,83.80
2022-12-04T11:25:27.867Z,83.97
2022-12-04T11:27:56.433Z,83.73
2022-12-04T11:30:31.425Z,83.95
2022-12-04T11:32:58.707Z,83.97
2022-12-04T11:35:28.671Z,83.83
2022-12-04T11:38:13.521Z,83.96
2022-12-04T11:40:45.707Z,83.93
2022-12-04T11:43:16.050Z,84.05
2022-12-04T11:45:53.035Z,83.85
2022-12-04T11:48:19.565Z,83.69
2022-12-04T11:51:05.818Z,83.80
2022-12-04T11:53:37.962Z,83.38
2022-12-04T11:56:16.422Z,83.09
2022-12-04T11:59:10.525Z,83.47
2022-12-04T12:01:46.097Z,83.33
2022-12-04T12:04:51.040Z,83.52
2022-12-04T12:07:33.298Z,83.08
2022-12-04T12:10:31.923Z,83.41
2022-12-04T12:13:11.704Z,83.43
2022-12-04T12:15:50.169Z,83.38
2022-12-04T12:18:51.791Z,83.20
2022-12-04T12:21:39.548Z,83.29
2022-12-04T12:24:23.626Z,83.34
2022-12-04T12:27:04.853Z,83.17
2022-12-04T12:29:52.001Z,83.39
2022-12-04T12:32:45.041Z,83.34
2022-12-04T12:35:35.765Z,83.26
2022-12-04T12:38:17.743Z,83.20
2022-12-04T12:41:17.654Z,83.36
2022-12-04T12:43:55.564Z,83.40
2022-12-04T12:47:01.562Z,83.31
2022-12-04T12:49:35.218Z,83.28
2022-12-04T12:52:10.643Z,83.07
2022-12-04T12:55:06.440Z,83.20
2022-12-04T12:57:42.627Z,83.25
2022-12-04T13:00:22.241Z,83.30
2022-12-04T13:03:07.703Z,83.52
2022-12-04T13:05:40.759Z,83.30
2022-12-04T13:08:21.209Z,83.31
2022-12-04T13:11:18.483Z,83.49
2022-12-04T13:13:53.219Z,83.27
2022-12-04T13:16:47.805Z,83.52
2022-12-04T13:19:29.490Z,83.47
2022-12-04T13:22:21.443Z,83.69
2022-12-04T13:25:15.857Z,83.74
2022-12-04T13:28:06.690Z,83.73
2022-12-04T13:30:56.950Z,83.74
2022-12-04T13:33:38.342Z,83.63
2022-12-04T13:36:32.178Z,83.56
2022-12-04T13:39:29.566Z,83.52
2022-12-04T13:42:06.844Z,83.59
2022-12-04T13:44:35.419Z,83.58
2022-12-04T13:47:08.693Z,83.60
2022-12-04T13:49:42.092Z,83.49
2022-12-04T13:52:37.382Z,83.37
2022-12-04T13:55:04.015Z,83.34
2022-12-04T13:57:30.569Z,83.39
2022-12-04T14:00:25.421Z,83.81
2022-12-04T14:02:55.963Z,83.42
2022-12-04T14:05:28.369Z,83.52
2022-12-04T14:08:23.493Z,83.54
2022-12-04T14:11:01.500Z,83.64
2022-12-04T14:13:45.462Z,83.66
2022-12-04T14:16:36.618Z,83.67
2022-12-04T14:19:04.733Z,83.99
2022-12-04T14:21:50.029Z,83.97
2022-12-04T14:24:39.035Z,83.93
2022-12-04T14:27:42.525Z,83.98
2022-12-04T14:30:37.803Z,84.04
2022-12-04T14:33:19.094Z,84.07
2022-12-04T14:36:01.483Z,84.15
2022-12-04T14:38:28.429Z,84.25
2022-12-04T14:40:58.001Z,84.20
2022-12-04T14:43:33.571Z,84.18
2022-12-04T14:46:06.600Z,83.93
2022-12-04T14:49:04.063Z,84.11
2022-12-04T14:51:54.190Z,83.98
2022-12-04T14:54:42.797Z,84.31
2022-12-04T14:57:36.341Z,84.39
2022-12-04T15:00:05.691Z,84.42
2022-12-04T15:02:40.161Z,84.41
2022-12-04T15:05:26.315Z,84.57
2022-12-04T15:08:06.609Z,84.68
2022-12-04T15:10:53.534Z,84.69
2022-12-04T15:13:33.402Z,84.66
2022-12-04T15:16:19.962Z,84.82
2022-12-04T15:19:00.549Z,84.86
2022-12-04T15:21:36.649Z,84.99
2022-12-04T15:24:08.688Z,85.01
2022-12-04T15:26:35.839Z,85.18
2022-12-04T15:29:05.690Z,85.35
2022-12-04T15:31:38.315Z,85.15
2022-12-04T15:34:14.110Z,84.78
2022-12-04T15:36:50.171Z,85.10
2022-12-04T15:39:28.854Z,85.07
2022-12-04T15:42:06.944Z,85.40
2022-12-04T15:44:35.216Z,85.36
2022-12-04T15:47:03.962Z,85.39
2022-12-04T15:49:32.840Z,85.57
2022-12-04T15:52:18.126Z,85.18
2022-12-04T15:55:04.875Z,85.30
2022-12-04T15:57:35.436Z,85.77
2022-12-04T16:00:05.200Z,85.42
2022-12-04T16:02:35.773Z,85.56
2022-12-04T16:05:28.795Z,85.49
2022-12-04T16:07:58.332Z,85.29
2022-12-04T16:10:28.680Z,85.57
2022-12-04T16:12:58.135Z,85.40
2022-12-04T16:15:27.335Z,85.40
2022-12-04T16:17:53.959Z,85.40
2022-12-04T16:20:23.084Z,85.61
2022-12-04T16:22:53.110Z,85.50
2022-12-04T16:25:19.429Z,85.49
2022-12-04T16:27:46.039Z,85.29
2022-12-04T16:30:17.892Z,85.41
2022-12-04T16:32:45.859Z,85.20
2022-12-04T16:35:23.990Z,85.27
2022-12-04T16:37:50.698Z,85.25
2022-12-04T16:40:17.358Z,85.44
2022-12-04T16:42:44.002Z,85.33
2022-12-04T16:45:28.378Z,85.47
2022-12-04T16:47:55.170Z,85.34
2022-12-04T16:50:21.606Z,85.47
2022-12-04T16:52:47.898Z,85.35
2022-12-04T16:55:18.899Z,85.61
2022-12-04T16:57:45.766Z,85.33
2022-12-04T17:00:14.516Z,85.21
2022-12-04T17:02:41.381Z,85.31
2022-12-04T17:05:08.910Z,85.44
2022-12-04T17:07:35.657Z,85.26
2022-12-04T17:10:02.070Z,85.29
2022-12-04T17:12:28.401Z,85.31
2022-12-04T17:14:55.025Z,85.39
2022-12-04T17:17:21.755Z,85.25
2022-12-04T17:19:48.083Z,85.35
2022-12-04T17:22:14.501Z,85.13
2022-12-04T17:24:48.128Z,85.34
2022-12-04T17:27:16.686Z,85.61
2022-12-04T17:29:43.014Z,85.45
2022-12-04T17:32:11.541Z,85.63
2022-12-04T17:34:51.897Z,85.77
2022-12-04T17:37:18.457Z,85.57
2022-12-04T17:39:44.884Z,85.51
2022-12-04T17:42:11.214Z,85.48
2022-12-04T17:44:39.470Z,85.60
2022-12-04T17:47:06.160Z,85.58
2022-12-04T17:49:32.683Z,85.31
2022-12-04T17:51:58.985Z,85.34
2022-12-04T17:54:26.022Z,85.36
2022-12-04T17:56:57.968Z,85.47
2022-12-04T17:59:24.800Z,85.46
2022-12-04T18:01:52.178Z,85.41
2022-12-04T18:04:19.199Z,85.15
2022-12-04T18:06:46.329Z,85.46
2022-12-04T18:09:19.019Z,85.51
2022-12-04T18:11:47.656Z,85.26
2022-12-04T18:14:16.883Z,85.28
2022-12-04T18:16:50.990Z,85.35
2022-12-04T18:19:17.446Z,85.31
2022-12-04T18:21:43.789Z,85.27
2022-12-04T18:24:11.943Z,85.54
2022-12-04T18:26:43.760Z,85.45
2022-12-04T18:29:13.832Z,85.45
2022-12-04T18:31:42.488Z,85.72
2022-12-04T18:34:09.486Z,85.73
2022-12-04T18:36:38.639Z,85.90
2022-12-04T18:39:07.745Z,85.97
2022-12-04T18:41:34.894Z,86.29
2022-12-04T18:44:02.895Z,86.51
2022-12-04T18:46:29.982Z,86.60
2022-12-04T18:49:00.970Z,86.58
2022-12-04T18:51:48.886Z,86.85
2022-12-04T18:54:19.212Z,87.17
2022-12-04T18:56:46.108Z,87.38
2022-12-04T18:59:21.129Z,87.43
2022-12-04T19:01:50.195Z,87.62
2022-12-04T19:04:22.863Z,87.61
2022-12-04T19:06:52.051Z,87.55
2022-12-04T19:09:35.382Z,87.76
2022-12-04T19:12:09.475Z,87.75
2022-12-04T19:14:40.069Z,88.11
2022-12-04T19:17:08.678Z,88.06
2022-12-04T19:19:35.074Z,88.52
2022-12-04T19:22:02.996Z,88.62
2022-12-04T19:24:31.447Z,88.68
2022-12-04T19:26:58.002Z,88.62
2022-12-04T19:29:24.354Z,88.61
2022-12-04T19:31:54.665Z,88.90
2022-12-04T19:34:24.069Z,88.83
2022-12-04T19:36:51.062Z,88.96
2022-12-04T19:39:19.156Z,88.98
2022-12-04T19:41:50.440Z,89.33
2022-12-04T19:44:47.210Z,89.06
2022-12-04T19:47:08.205Z,89.05
2022-12-04T19:49:34.813Z,89.20
2022-12-04T19:52:01.156Z,89.24
2022-12-04T19:54:28.097Z,89.33
2022-12-04T19:56:54.410Z,89.29
2022-12-04T19:59:20.875Z,89.53
2022-12-04T20:01:47.524Z,89.70
2022-12-04T20:04:16.610Z,89.46
2022-12-04T20:06:45.276Z,89.72
2022-12-04T20:09:14.824Z,89.69
2022-12-04T20:11:41.922Z,89.53
2022-12-04T20:14:09.981Z,89.72
2022-12-04T20:16:37.567Z,89.77
2022-12-04T20:19:07.864Z,89.61
2022-12-04T20:21:34.527Z,89.67
2022-12-04T20:24:03.881Z,89.50
2022-12-04T20:26:33.200Z,89.70
2022-12-04T20:29:03.774Z,89.99
2022-12-04T20:31:36.242Z,89.73
2022-12-04T20:34:07.244Z,89.94
2022-12-04T20:36:39.992Z,89.71
2022-12-04T20:39:07.398Z,89.79
2022-12-04T20:41:34.042Z,89.96
2022-12-04T20:44:03.416Z,89.85
2022-12-04T20:46:32.477Z,89.80
2022-12-04T20:49:01.014Z,89.75
2022-12-04T20:51:29.983Z,89.86
2022-12-04T20:54:04.073Z,89.80
2022-12-04T20:56:34.934Z,89.73
2022-12-04T20:59:04.635Z,89.67
2022-12-04T21:01:34.986Z,89.96
2022-12-04T21:04:03.358Z,89.77
2022-12-04T21:06:40.489Z,89.79
2022-12-04T21:09:12.021Z,89.66
2022-12-04T21:11:41.216Z,89.65
2022-12-04T21:14:30.383Z,89.77
2022-12-04T21:16:57.472Z,89.86
2022-12-04T21:19:24.488Z,89.65
2022-12-04T21:21:50.867Z,89.75
2022-12-04T21:24:22.013Z,89.62
2022-12-04T21:26:48.372Z,89.81
2022-12-04T21:29:15.452Z,89.78
2022-12-04T21:31:42.138Z,89.48
2022-12-04T21:34:11.220Z,89.59
2022-12-04T21:36:37.617Z,89.67
2022-12-04T21:39:04.417Z,89.76
2022-12-04T21:41:49.356Z,89.71
2022-12-04T21:44:17.962Z,89.58
2022-12-04T21:46:44.941Z,89.68
2022-12-04T21:49:11.932Z,89.61
2022-12-04T21:54:27.578Z,89.43
2022-12-04T21:56:54.851Z,89.53
2022-12-04T21:59:21.416Z,89.49
2022-12-04T22:01:47.850Z,89.87
2022-12-04T22:04:14.318Z,89.90
2022-12-04T22:06:40.652Z,89.71
2022-12-04T22:09:09.019Z,89.56
2022-12-04T22:11:35.896Z,89.69
2022-12-04T22:14:05.685Z,89.75
2022-12-04T22:16:41.630Z,89.77
2022-12-04T22:19:13.965Z,89.85
2022-12-04T22:21:43.684Z,89.84
2022-12-04T22:24:10.794Z,89.69
2022-12-04T22:26:38.811Z,89.65
2022-12-04T22:29:34.093Z,89.74
2022-12-04T22:32:01.897Z,89.93
2022-12-04T22:34:29.376Z,89.79
2022-12-04T22:36:57.663Z,89.83
2022-12-04T22:39:28.461Z,89.74
2022-12-04T22:42:02.487Z,89.75
2022-12-04T22:44:34.414Z,89.73
2022-12-04T22:47:00.933Z,89.55
2022-12-04T22:49:27.457Z,89.78
2022-12-04T22:51:53.756Z,89.73
2022-12-04T22:54:20.048Z,89.75
2022-12-04T22:56:46.518Z,89.54
2022-12-04T22:59:12.941Z,89.70
2022-12-04T23:01:39.372Z,89.71
2022-12-04T23:04:05.789Z,89.81
2022-12-04T23:06:36.101Z,89.53
2022-12-04T23:09:15.057Z,89.80
2022-12-04T23:11:42.316Z,89.62
2022-12-04T23:14:15.775Z,89.63
2022-12-04T23:16:43.917Z,89.58
2022-12-04T23:19:13.324Z,89.52
2022-12-04T23:21:43.383Z,89.80
2022-12-04T23:24:11.523Z,89.60
2022-12-04T23:26:40.907Z,89.69
2022-12-04T23:29:29.558Z,89.66
2022-12-04T23:31:54.161Z,89.49
2022-12-04T23:34:20.484Z,89.48
2022-12-04T23:36:46.782Z,89.52
2022-12-04T23:39:16.343Z,89.19
2022-12-04T23:41:46.511Z,89.32
2022-12-04T23:44:13.037Z,89.27
2022-12-04T23:46:39.861Z,89.20
2022-12-04T23:49:06.313Z,89.00
2022-12-04T23:51:33.311Z,89.12
2022-12-04T23:54:02.183Z,88.86
2022-12-04T23:56:28.755Z,89.07
2022-12-04T23:59:00.682Z,89.07
